Time;durP1;ratioP1;P1;durP2;ratioP2;P2;SDS_P1;SDS_P2;PMS_P1;PMS_P2;Temp;Humidity;BMP_temperature;BMP_pressure;BME280_temperature;BME280_humidity;BME280_pressure;Samples;Min_cycle;Max_cycle;Signal;HPM_P1;HPM_P2
2023/09/25 00:03:49;;;;;;;3.50;1.85;;;;;;;10.92;68.43;98856.00;10456293;28;20059;-63
2023/09/25 00:09:11;;;;;;;2.47;1.83;;;;;;;10.94;68.95;98864.56;10454975;28;20049;-63
2023/09/25 00:14:32;;;;;;;3.60;1.77;;;;;;;10.85;68.74;98848.44;10455136;28;20045;-63
2023/09/25 00:19:53;;;;;;;4.88;1.45;;;;;;;10.88;69.38;98850.81;10456031;28;20147;-63
2023/09/25 00:25:13;;;;;;;2.80;1.73;;;;;;;10.91;69.62;98848.22;10454819;28;20048;-63
2023/09/25 00:30:34;;;;;;;5.20;1.83;;;;;;;10.89;69.80;98848.75;10456006;28;20069;-63
2023/09/25 00:35:55;;;;;;;3.55;2.05;;;;;;;10.79;69.48;98865.41;10454878;28;20045;-63
2023/09/25 00:41:16;;;;;;;2.90;2.20;;;;;;;10.77;70.62;98872.88;10440775;28;20530;-63
2023/09/25 00:46:37;;;;;;;2.72;2.00;;;;;;;10.75;70.21;98869.94;10455444;28;20053;-64
2023/09/25 00:51:58;;;;;;;3.22;1.77;;;;;;;10.79;70.43;98871.00;10455433;28;20052;-63
2023/09/25 00:57:18;;;;;;;2.90;1.98;;;;;;;10.87;70.78;98873.72;10426554;28;20037;-63
2023/09/25 01:02:39;;;;;;;2.78;1.83;;;;;;;10.91;70.74;98879.69;10442249;28;20065;-63
2023/09/25 01:08:02;;;;;;;2.65;2.13;;;;;;;10.86;70.60;98872.25;10447829;28;20505;-63
2023/09/25 01:13:23;;;;;;;6.07;2.05;;;;;;;10.85;70.83;98874.31;10461564;28;20057;-63
2023/09/25 01:18:44;;;;;;;2.92;1.83;;;;;;;10.77;71.20;98878.47;10447656;28;20049;-63
2023/09/25 01:24:05;;;;;;;4.72;2.08;;;;;;;10.72;71.15;98882.97;10461437;28;20452;-63
2023/09/25 01:29:26;;;;;;;3.10;2.25;;;;;;;10.74;71.23;98874.03;10461290;28;20463;-63
2023/09/25 01:34:47;;;;;;;3.95;2.15;;;;;;;10.79;71.65;98864.66;10446928;28;20441;-63
2023/09/25 01:40:12;;;;;;;6.10;2.58;;;;;;;10.77;71.48;98856.88;10461692;28;20071;-63
2023/09/25 01:45:33;;;;;;;2.83;2.17;;;;;;;10.73;71.41;98844.63;10460557;28;20057;-63
2023/09/25 01:50:54;;;;;;;4.00;1.98;;;;;;;10.63;71.80;98846.56;10461326;28;20060;-63
2023/09/25 01:56:15;;;;;;;4.40;2.38;;;;;;;10.55;71.69;98841.78;10461341;28;20103;-63
2023/09/25 02:01:36;;;;;;;4.18;2.30;;;;;;;10.52;72.04;98834.53;10445907;28;20057;-63
2023/09/25 02:06:57;;;;;;;2.42;2.00;;;;;;;10.54;72.40;98834.72;10459845;28;20040;-63
2023/09/25 02:12:19;;;;;;;3.13;2.83;;;;;;;10.57;72.11;98827.97;10459495;28;20481;-63
2023/09/25 02:17:40;;;;;;;4.00;3.17;;;;;;;10.48;72.35;98831.38;10444567;28;20057;-63
2023/09/25 02:23:01;;;;;;;4.82;3.28;;;;;;;10.42;72.49;98813.38;10459781;28;20075;-63
2023/09/25 02:28:23;;;;;;;4.75;2.90;;;;;;;10.41;72.71;98814.69;10459880;28;20491;-63
2023/09/25 02:33:44;;;;;;;4.25;3.10;;;;;;;10.40;72.61;98810.41;10459704;28;20528;-63
2023/09/25 02:39:05;;;;;;;4.20;3.15;;;;;;;10.40;72.70;98791.63;10458248;28;20132;-63
2023/09/25 02:44:27;;;;;;;4.72;3.53;;;;;;;10.43;73.08;98793.28;10458472;28;20045;-63
2023/09/25 02:49:47;;;;;;;6.65;4.38;;;;;;;10.44;72.84;98791.97;10444165;28;20048;-64
2023/09/25 02:55:09;;;;;;;7.63;3.88;;;;;;;10.42;73.42;98786.22;10457874;28;20053;-63
2023/09/25 03:00:30;;;;;;;4.93;4.20;;;;;;;10.40;73.41;98783.25;10458081;28;20427;-63
2023/09/25 03:05:51;;;;;;;5.13;4.10;;;;;;;10.37;73.77;98773.22;10458658;28;20427;-64
2023/09/25 03:11:12;;;;;;;5.88;4.30;;;;;;;10.45;73.46;98779.50;10443521;28;20453;-63
2023/09/25 03:16:34;;;;;;;8.80;4.95;;;;;;;10.46;73.83;98766.28;10458471;28;20426;-63
2023/09/25 03:21:56;;;;;;;5.78;4.57;;;;;;;10.54;73.90;98761.38;10458292;28;20044;-63
2023/09/25 03:27:17;;;;;;;6.63;4.35;;;;;;;10.57;73.68;98765.81;10457076;28;20049;-63
2023/09/25 03:32:38;;;;;;;7.93;4.53;;;;;;;10.64;74.48;98765.03;10456612;28;20045;-63
2023/09/25 03:37:59;;;;;;;5.43;4.15;;;;;;;10.74;73.85;98749.09;10442269;28;20525;-63
2023/09/25 03:43:20;;;;;;;5.03;4.10;;;;;;;10.83;73.71;98740.09;10455936;28;20518;-63
2023/09/25 03:48:41;;;;;;;5.03;4.05;;;;;;;11.00;73.95;98744.94;10456385;28;20388;-63
2023/09/25 03:54:03;;;;;;;6.60;4.10;;;;;;;11.11;73.77;98744.44;10456710;28;20052;-63
2023/09/25 03:59:24;;;;;;;3.85;3.45;;;;;;;11.25;73.71;98747.66;10457224;28;20143;-63
2023/09/25 04:04:45;;;;;;;5.13;3.78;;;;;;;11.30;73.63;98754.31;10441185;28;20045;-63
2023/09/25 04:10:07;;;;;;;5.38;3.15;;;;;;;11.42;73.53;98752.50;10455471;28;20049;-63
2023/09/25 04:15:28;;;;;;;5.38;3.45;;;;;;;11.53;73.49;98749.19;10455910;28;20044;-64
2023/09/25 04:20:49;;;;;;;7.47;4.18;;;;;;;11.62;73.33;98751.31;10455164;28;20094;-63
2023/09/25 04:26:11;;;;;;;4.72;3.58;;;;;;;11.73;73.42;98755.63;10455092;28;20064;-63
2023/09/25 04:31:32;;;;;;;4.10;3.60;;;;;;;11.84;73.47;98768.41;10441080;28;20100;-63
2023/09/25 04:36:53;;;;;;;5.05;3.40;;;;;;;11.94;73.24;98760.78;10457038;28;20506;-64
2023/09/25 04:42:14;;;;;;;5.15;3.78;;;;;;;12.02;73.17;98753.03;10464210;28;20052;-70
2023/09/25 04:47:35;;;;;;;5.32;3.75;;;;;;;11.98;72.98;98764.66;10466800;28;20065;-68
2023/09/25 04:52:55;;;;;;;7.50;4.32;;;;;;;12.07;72.94;98765.28;10462518;28;20045;-63
2023/09/25 04:58:16;;;;;;;5.07;3.80;;;;;;;12.06;72.36;98770.13;10463658;28;20075;-63
2023/09/25 05:03:40;;;;;;;4.78;4.03;;;;;;;12.13;72.76;98763.69;10463302;28;20159;-64
2023/09/25 05:09:01;;;;;;;6.15;4.00;;;;;;;12.19;72.92;98766.97;10462892;28;20040;-64
2023/09/25 05:14:21;;;;;;;4.43;3.75;;;;;;;12.32;72.76;98758.19;10463052;28;20051;-64
2023/09/25 05:19:42;;;;;;;8.40;4.53;;;;;;;12.46;72.94;98752.19;10462084;28;20041;-63
2023/09/25 05:25:09;;;;;;;7.28;4.60;;;;;;;12.48;72.74;98752.34;10461640;28;20065;-65
2023/09/25 05:30:30;;;;;;;9.50;4.35;;;;;;;12.64;72.70;98759.16;10448077;28;20064;-63
2023/09/25 05:35:51;;;;;;;10.00;5.60;;;;;;;12.73;72.50;98752.09;10461124;28;20490;-63
2023/09/25 05:41:14;;;;;;;8.52;4.68;;;;;;;12.85;72.40;98755.84;10460897;28;20041;-63
2023/09/25 05:46:35;;;;;;;7.15;4.80;;;;;;;12.97;72.29;98756.00;10447387;28;20080;-63
2023/09/25 05:51:56;;;;;;;5.60;4.15;;;;;;;13.06;71.82;98758.81;10461253;28;20052;-63
2023/09/25 05:57:17;;;;;;;8.32;4.82;;;;;;;13.21;71.91;98752.19;10461053;28;20544;-64
2023/09/25 06:02:39;;;;;;;7.75;4.47;;;;;;;13.32;70.97;98757.25;10460001;28;20076;-63
2023/09/25 06:08:00;;;;;;;7.90;4.82;;;;;;;13.47;71.14;98761.78;10460281;28;20037;-63
2023/09/25 06:13:21;;;;;;;9.93;4.85;;;;;;;13.54;70.43;98760.19;10460721;28;20513;-64
2023/09/25 06:18:45;;;;;;;6.43;5.13;;;;;;;13.48;69.73;98762.53;10460630;28;20075;-63
2023/09/25 06:24:09;;;;;;;8.38;5.38;;;;;;;13.47;68.97;98773.00;10460219;28;20523;-64
2023/09/25 06:29:31;;;;;;;10.80;4.80;;;;;;;13.45;69.87;98765.19;10460083;28;20073;-64
2023/09/25 06:34:52;;;;;;;8.13;5.55;;;;;;;13.69;69.58;98773.88;10459722;28;20077;-63
2023/09/25 06:40:15;;;;;;;6.03;4.65;;;;;;;13.83;69.14;98777.72;10459919;28;20102;-63
2023/09/25 06:45:38;;;;;;;8.25;5.25;;;;;;;13.93;69.18;98770.00;10458159;28;20045;-63
2023/09/25 06:50:59;;;;;;;6.85;4.72;;;;;;;14.21;68.95;98774.06;10458957;28;20037;-63
2023/09/25 06:56:20;;;;;;;5.05;3.90;;;;;;;14.42;68.38;98781.81;10458004;28;20056;-63
2023/09/25 07:01:41;;;;;;;6.15;3.78;;;;;;;14.62;68.04;98759.28;10456823;28;20040;-63
2023/09/25 07:07:01;;;;;;;7.13;4.00;;;;;;;14.95;67.95;98767.81;10459155;28;20067;-63
2023/09/25 07:12:25;;;;;;;4.57;3.47;;;;;;;15.33;67.68;98773.16;10458677;28;20394;-64
2023/09/25 07:17:47;;;;;;;3.95;3.20;;;;;;;15.63;66.64;98766.00;10443330;28;20522;-64
2023/09/25 07:23:08;;;;;;;3.63;2.88;;;;;;;15.85;66.08;98765.94;10457641;28;20094;-63
2023/09/25 07:28:28;;;;;;;7.60;3.53;;;;;;;16.11;65.34;98776.00;10457565;28;20477;-63
2023/09/25 07:33:50;;;;;;;4.53;3.03;;;;;;;16.08;63.91;98765.97;10457550;28;20491;-64
2023/09/25 07:39:13;;;;;;;4.50;3.15;;;;;;;16.16;63.26;98769.28;10456824;28;20072;-63
2023/09/25 07:44:34;;;;;;;4.90;2.92;;;;;;;16.16;62.80;98769.28;10456756;28;20127;-63
2023/09/25 07:49:55;;;;;;;6.20;3.10;;;;;;;16.30;62.21;98772.25;10456674;28;20072;-64
2023/09/25 07:55:16;;;;;;;5.68;2.90;;;;;;;16.30;60.88;98772.97;10456118;28;20044;-64
2023/09/25 08:00:39;;;;;;;7.70;2.75;;;;;;;16.59;60.29;98769.78;10455996;28;20064;-63
2023/09/25 08:06:05;;;;;;;4.85;2.85;;;;;;;16.64;59.71;98776.41;10455323;28;20422;-63
2023/09/25 08:11:26;;;;;;;5.38;2.83;;;;;;;17.03;59.18;98782.28;10455969;28;20522;-63
2023/09/25 08:16:46;;;;;;;4.25;2.55;;;;;;;17.46;57.77;98771.34;10455470;28;20128;-63
2023/09/25 08:22:08;;;;;;;4.55;3.05;;;;;;;17.73;57.62;98772.88;10452705;28;20111;-64
2023/09/25 08:27:28;;;;;;;4.63;2.95;;;;;;;18.51;57.05;98784.16;10446820;28;20136;-65
2023/09/25 08:32:49;;;;;;;4.32;3.10;;;;;;;18.90;54.72;98785.47;10455648;28;20422;-64
2023/09/25 08:38:10;;;;;;;6.82;3.20;;;;;;;19.31;54.51;98791.09;10454771;28;20518;-64
2023/09/25 08:43:31;;;;;;;4.38;2.88;;;;;;;20.09;53.36;98796.31;10455173;28;20057;-64
2023/09/25 08:48:56;;;;;;;7.13;2.83;;;;;;;20.76;51.81;98784.47;10454186;28;20194;-64
2023/09/25 08:54:17;;;;;;;3.40;2.55;;;;;;;21.68;50.07;98775.56;10454456;28;20388;-64
2023/09/25 08:59:41;;;;;;;4.65;2.40;;;;;;;22.24;46.96;98773.50;10454256;28;20486;-64
2023/09/25 09:05:03;;;;;;;5.25;2.67;;;;;;;22.43;45.57;98780.59;10450821;28;20122;-64
2023/09/25 09:10:23;;;;;;;4.45;2.50;;;;;;;22.88;44.67;98782.25;10452574;28;20127;-66
2023/09/25 09:15:45;;;;;;;4.07;2.97;;;;;;;24.14;41.52;98780.72;10453573;28;20065;-65
2023/09/25 09:21:07;;;;;;;4.85;2.40;;;;;;;26.10;39.74;98760.88;10454476;28;20129;-65
2023/09/25 09:26:28;;;;;;;5.30;2.28;;;;;;;28.79;36.25;98771.91;10460802;28;20076;-65
2023/09/25 09:31:54;;;;;;;4.05;2.08;;;;;;;32.10;31.20;98765.59;10461750;28;20084;-65
2023/09/25 09:37:15;;;;;;;3.88;1.92;;;;;;;34.36;27.03;98764.81;10461643;28;20177;-66
2023/09/25 09:42:35;;;;;;;4.47;1.90;;;;;;;35.75;24.00;98757.06;10458540;28;20127;-67
2023/09/25 09:48:00;;;;;;;4.07;1.83;;;;;;;39.36;22.07;98755.41;10463340;28;20115;-67
2023/09/25 09:53:26;;;;;;;6.60;1.33;;;;;;;44.03;15.55;98748.22;10456338;28;20501;-67
2023/09/25 09:58:48;;;;;;;5.47;1.65;;;;;;;42.94;14.65;98746.31;10444688;28;20076;-67
2023/09/25 10:04:23;;;;;;;2.47;1.20;;;;;;;41.57;15.54;98750.94;10472239;28;20510;-67
2023/09/25 10:10:06;;;;;;;3.90;1.27;;;;;;;45.08;13.48;98726.34;10502179;28;20045;-68
2023/09/25 10:15:34;;;;;;;3.03;1.10;;;;;;;46.77;10.78;98716.09;10500727;28;20083;-68
2023/09/25 10:21:09;;;;;;;2.15;0.80;;;;;;;48.88;10.28;98723.81;10501226;28;20425;-67
2023/09/25 10:26:31;;;;;;;2.15;0.70;;;;;;;49.57;8.70;98713.41;10501532;28;20037;-67
2023/09/25 10:31:52;;;;;;;4.30;0.90;;;;;;;49.48;9.18;98706.00;10501301;28;20056;-67
2023/09/25 10:37:13;;;;;;;1.77;0.80;;;;;;;50.18;8.87;98716.84;10500286;28;20546;-67
2023/09/25 10:42:35;;;;;;;1.38;0.70;;;;;;;49.31;8.15;98706.50;10469903;28;20048;-69
2023/09/25 10:47:56;;;;;;;2.05;0.80;;;;;;;48.16;8.93;98705.25;10457292;28;20479;-68
2023/09/25 10:53:26;;;;;;;2.58;0.77;;;;;;;46.93;9.32;98696.63;10455364;28;20091;-67
2023/09/25 10:58:52;;;;;;;4.35;1.20;;;;;;;46.77;10.04;98692.47;10455658;28;20044;-68
2023/09/25 11:04:13;;;;;;;2.50;1.00;;;;;;;47.09;9.29;98688.91;10456838;28;20072;-67
2023/09/25 11:09:35;;;;;;;3.35;1.05;;;;;;;45.18;10.47;98701.47;10456229;28;20139;-74
2023/09/25 11:14:57;;;;;;;3.25;1.10;;;;;;;45.03;10.61;98705.25;10454923;28;20041;-78
2023/09/25 11:20:22;;;;;;;4.53;1.20;;;;;;;45.59;10.52;98688.00;10461384;28;20044;-79
2023/09/25 11:25:44;;;;;;;3.40;1.50;;;;;;;45.99;10.34;98696.63;10427914;28;20069;-76
2023/09/25 11:31:05;;;;;;;4.18;1.60;;;;;;;46.58;10.23;98692.94;10453436;28;20048;-75
2023/09/25 11:36:27;;;;;;;4.35;1.98;;;;;;;44.76;10.09;98684.69;10418282;28;20041;-76
2023/09/25 11:41:48;;;;;;;4.35;2.30;;;;;;;42.40;11.40;98679.16;10447856;28;20462;-76
2023/09/25 11:47:10;;;;;;;2.65;2.03;;;;;;;37.41;14.59;98685.22;10433866;28;20041;-76
2023/09/25 11:52:32;;;;;;;5.10;2.72;;;;;;;33.45;18.46;98684.66;10433705;28;20044;-74
2023/09/25 11:57:52;;;;;;;4.72;2.38;;;;;;;30.86;22.21;98671.13;10462463;28;20053;-76
2023/09/25 12:03:14;;;;;;;3.78;2.30;;;;;;;29.22;24.83;98676.78;10462673;28;20116;-75
2023/09/25 12:08:35;;;;;;;;;;;;;;;28.48;26.91;98672.47;10443938;28;20052;-75
2023/09/25 12:13:56;;;;;;;6.57;2.42;;;;;;;27.48;27.88;98667.53;10451679;28;20020;-75
2023/09/25 12:19:17;;;;;;;4.20;1.73;;;;;;;27.13;28.16;98664.13;10452255;28;20037;-74
2023/09/25 12:24:38;;;;;;;7.40;2.10;;;;;;;26.84;29.36;98653.59;10452828;28;20064;-72
2023/09/25 12:29:59;;;;;;;8.47;2.73;;;;;;;26.74;29.70;98657.00;10427613;28;20048;-71
2023/09/25 12:35:20;;;;;;;6.53;2.47;;;;;;;26.66;30.38;98651.13;10453859;28;20094;-75
2023/09/25 12:40:41;;;;;;;4.47;2.60;;;;;;;26.69;30.13;98661.19;10416210;28;20064;-71
2023/09/25 12:46:02;;;;;;;6.90;1.70;;;;;;;26.46;30.24;98646.47;10440087;28;20052;-71
2023/09/25 12:51:26;;;;;;;3.35;2.40;;;;;;;26.25;31.02;98647.47;10427055;28;20056;-71
2023/09/25 12:56:47;;;;;;;4.18;1.98;;;;;;;25.85;31.91;98641.63;10437702;28;20065;-73
2023/09/25 13:02:08;;;;;;;3.38;1.70;;;;;;;25.65;32.78;98636.19;10447918;28;20052;-72
2023/09/25 13:07:28;;;;;;;6.40;2.10;;;;;;;25.51;33.42;98630.16;10447535;28;20045;-71
2023/09/25 13:12:58;;;;;;;4.72;2.58;;;;;;;25.00;34.72;98634.66;10406674;28;20065;-69
2023/09/25 13:18:19;;;;;;;6.00;2.65;;;;;;;24.86;35.06;98631.44;10438793;28;20387;-73
2023/09/25 13:23:40;;;;;;;5.97;2.22;;;;;;;24.72;35.06;98623.97;10431949;28;20064;-74
2023/09/25 13:29:05;;;;;;;2.90;1.77;;;;;;;24.44;35.50;98617.53;10414851;28;20065;-75
2023/09/25 13:34:26;;;;;;;3.70;2.08;;;;;;;24.16;36.72;98629.59;10444818;28;20121;-71
2023/09/25 13:39:47;;;;;;;2.85;2.10;;;;;;;23.96;36.86;98612.66;10406104;28;20048;-71
2023/09/25 13:45:12;;;;;;;4.68;1.90;;;;;;;23.85;36.79;98630.13;10414484;28;20122;-70
2023/09/25 13:50:34;;;;;;;5.45;2.45;;;;;;;23.86;37.01;98614.50;10458098;28;20109;-71
2023/09/25 13:55:55;;;;;;;4.55;1.67;;;;;;;23.53;38.10;98602.09;10443851;28;20056;-68
2023/09/25 14:01:16;;;;;;;4.22;1.90;;;;;;;23.61;37.99;98598.78;10457368;28;20446;-73
2023/09/25 14:06:38;;;;;;;9.07;2.03;;;;;;;23.46;38.54;98594.78;10458870;28;20045;-73
2023/09/25 14:11:59;;;;;;;4.85;2.33;;;;;;;23.29;38.94;98587.13;10445280;28;20513;-73
2023/09/25 14:17:20;;;;;;;4.00;2.50;;;;;;;23.00;39.81;98589.09;10444167;28;20060;-74
2023/09/25 14:22:44;;;;;;;6.65;2.30;;;;;;;22.87;40.55;98580.81;10431534;28;20037;-73
2023/09/25 14:28:05;;;;;;;5.68;1.88;;;;;;;22.84;41.59;98582.84;10435597;28;20462;-73
2023/09/25 14:33:26;;;;;;;4.47;2.10;;;;;;;22.67;41.15;98583.69;10456828;28;20061;-73
2023/09/25 14:38:46;;;;;;;6.05;2.33;;;;;;;22.56;41.92;98583.34;10431130;28;20106;-73
2023/09/25 14:44:07;;;;;;;4.78;2.20;;;;;;;22.35;42.41;98578.38;10443141;28;20072;-73
2023/09/25 14:49:28;;;;;;;5.55;2.00;;;;;;;22.23;43.18;98577.97;10454981;28;20052;-74
2023/09/25 14:54:49;;;;;;;6.05;1.77;;;;;;;22.18;43.20;98579.19;10471844;28;20102;-73
2023/09/25 15:00:11;;;;;;;3.80;1.60;;;;;;;22.09;43.62;98569.66;10471898;28;20376;-74
2023/09/25 15:05:33;;;;;;;9.15;2.45;;;;;;;22.14;44.34;98565.56;10457238;28;20080;-75
2023/09/25 15:10:54;;;;;;;4.35;2.63;;;;;;;21.98;43.75;98571.38;10457331;28;20041;-73
2023/09/25 15:16:15;;;;;;;5.38;2.25;;;;;;;21.84;43.97;98570.88;10457456;28;20045;-74
2023/09/25 15:21:36;;;;;;;5.05;2.13;;;;;;;21.73;44.59;98562.66;10456295;28;20073;-73
2023/09/25 15:26:57;;;;;;;4.15;2.10;;;;;;;21.68;44.73;98561.75;10432570;28;20072;-74
2023/09/25 15:32:18;;;;;;;4.43;2.35;;;;;;;21.55;45.47;98557.03;10484105;28;20076;-74
2023/09/25 15:37:39;;;;;;;6.28;1.75;;;;;;;21.39;45.71;98559.97;10483913;28;20061;-74
2023/09/25 15:42:59;;;;;;;3.58;1.95;;;;;;;21.31;45.94;98566.06;10483856;28;20120;-73
2023/09/25 15:48:20;;;;;;;5.13;2.05;;;;;;;21.14;47.45;98566.81;10497501;28;20040;-73
2023/09/25 15:53:41;;;;;;;3.50;2.20;;;;;;;20.98;46.83;98569.72;10497191;28;20071;-72
2023/09/25 15:59:02;;;;;;;4.47;1.77;;;;;;;20.82;47.33;98564.13;10496917;28;20482;-72
2023/09/25 16:04:23;;;;;;;4.78;1.85;;;;;;;20.67;48.29;98562.13;10483005;28;20080;-74
2023/09/25 16:09:44;;;;;;;2.30;1.70;;;;;;;20.53;48.54;98555.84;10426154;28;20069;-74
2023/09/25 16:15:05;;;;;;;4.43;1.92;;;;;;;20.43;49.08;98553.31;10400502;28;20049;-73
2023/09/25 16:20:26;;;;;;;4.35;1.73;;;;;;;20.32;50.01;98553.53;10399993;28;20041;-71
2023/09/25 16:25:47;;;;;;;7.80;1.85;;;;;;;20.12;49.82;98559.78;10436599;28;20098;-72
2023/09/25 16:31:08;;;;;;;3.35;1.80;;;;;;;19.96;50.25;98559.81;10478262;28;20052;-65
2023/09/25 16:36:28;;;;;;;6.97;2.30;;;;;;;19.78;50.75;98561.84;10461588;28;20072;-72
2023/09/25 16:41:49;;;;;;;4.50;2.22;;;;;;;19.58;51.50;98556.00;10463719;28;20064;-71
2023/09/25 16:47:10;;;;;;;7.00;2.00;;;;;;;19.40;52.44;98552.34;10454989;28;20091;-70
2023/09/25 16:52:31;;;;;;;5.80;2.15;;;;;;;19.24;52.21;98563.63;10435045;28;20082;-68
2023/09/25 16:57:52;;;;;;;4.47;1.90;;;;;;;19.13;52.65;98562.44;10448992;28;20072;-73
2023/09/25 17:03:13;;;;;;;6.30;2.65;;;;;;;19.01;52.25;98572.44;10462652;28;20076;-71
2023/09/25 17:08:34;;;;;;;6.28;2.30;;;;;;;18.86;53.71;98565.38;10462182;28;20048;-71
2023/09/25 17:13:55;;;;;;;3.47;2.00;;;;;;;18.73;53.76;98564.06;10448580;28;20502;-71
2023/09/25 17:19:15;;;;;;;6.55;2.75;;;;;;;18.60;54.34;98574.00;10448220;28;20071;-71
2023/09/25 17:24:36;;;;;;;3.78;2.00;;;;;;;18.51;54.66;98568.59;10433953;28;20112;-72
2023/09/25 17:29:57;;;;;;;5.18;2.33;;;;;;;18.42;54.54;98578.75;10434176;28;20049;-70
2023/09/25 17:35:18;;;;;;;4.93;2.40;;;;;;;18.26;55.20;98575.88;10447459;28;20076;-71
2023/09/25 17:40:41;;;;;;;;;;;;;;;18.14;56.95;98575.22;10461535;28;20041;-72
2023/09/25 17:46:02;;;;;;;5.13;2.40;;;;;;;18.07;55.93;98590.41;10446076;28;20362;-74
2023/09/25 17:51:24;;;;;;;5.40;2.65;;;;;;;17.91;56.09;98589.56;10446898;28;20068;-71
2023/09/25 17:56:45;;;;;;;3.83;2.65;;;;;;;17.75;56.47;98592.28;10446826;28;20510;-73
2023/09/25 18:02:06;;;;;;;4.70;2.70;;;;;;;17.69;56.77;98594.75;10459392;28;20088;-71
2023/09/25 18:07:26;;;;;;;6.15;3.40;;;;;;;17.64;57.01;98599.44;10432885;28;20041;-70
2023/09/25 18:12:48;;;;;;;5.75;3.13;;;;;;;17.60;57.15;98602.06;10459950;28;20053;-71
2023/09/25 18:18:09;;;;;;;7.18;3.33;;;;;;;17.50;57.72;98600.78;10446017;28;20493;-71
2023/09/25 18:23:29;;;;;;;7.50;3.10;;;;;;;17.32;57.59;98598.44;10431649;28;20427;-70
2023/09/25 18:28:51;;;;;;;5.70;3.22;;;;;;;17.17;58.29;98587.72;10440709;28;20065;-72
2023/09/25 18:34:13;;;;;;;7.88;3.60;;;;;;;17.13;58.87;98587.50;10441049;28;20044;-75
2023/09/25 18:39:34;;;;;;;5.78;3.38;;;;;;;17.10;59.26;98594.41;10459040;28;20372;-77
2023/09/25 18:44:54;;;;;;;6.95;3.10;;;;;;;17.08;59.39;98597.09;10431177;28;20037;-73
2023/09/25 18:50:16;;;;;;;7.00;4.55;;;;;;;17.07;59.61;98596.34;10459193;28;20171;-73
2023/09/25 18:55:43;;;;;;;7.72;3.80;;;;;;;17.02;59.64;98605.22;10429773;28;20071;-73
2023/09/25 19:01:04;;;;;;;5.28;3.65;;;;;;;16.87;60.02;98604.41;10457841;28;20079;-70
2023/09/25 19:06:25;;;;;;;6.68;4.53;;;;;;;16.79;60.66;98600.41;10458506;28;20053;-73
2023/09/25 19:11:46;;;;;;;6.75;4.15;;;;;;;16.75;60.50;98606.56;10443619;28;20083;-72
2023/09/25 19:17:07;;;;;;;8.57;5.18;;;;;;;16.68;61.19;98613.19;10436882;28;20044;-72
2023/09/25 19:22:27;;;;;;;6.53;4.40;;;;;;;16.68;61.34;98610.38;10443078;28;20114;-73
2023/09/25 19:27:48;;;;;;;7.47;4.15;;;;;;;16.73;61.71;98602.91;10417825;28;20776;-73
2023/09/25 19:33:09;;;;;;;7.13;4.85;;;;;;;16.70;61.65;98598.50;10484282;28;20068;-73
2023/09/25 19:38:31;;;;;;;8.48;5.38;;;;;;;16.70;62.30;98607.69;10483838;28;20052;-72
2023/09/25 19:43:51;;;;;;;11.00;5.70;;;;;;;16.72;62.06;98601.44;10456649;28;20068;-72
2023/09/25 19:49:13;;;;;;;10.25;5.78;;;;;;;16.76;62.39;98596.75;10497824;28;20068;-73
2023/09/25 19:54:33;;;;;;;9.45;5.55;;;;;;;16.78;62.82;98598.94;10475410;28;20045;-70
2023/09/25 19:59:54;;;;;;;11.70;5.80;;;;;;;16.79;62.85;98594.75;10453242;28;20124;-71
2023/09/25 20:05:15;;;;;;;8.35;5.93;;;;;;;16.65;62.44;98594.66;10452771;28;20085;-71
2023/09/25 20:10:36;;;;;;;9.63;5.43;;;;;;;16.63;62.65;98588.94;10465962;28;20076;-71
2023/09/25 20:15:57;;;;;;;10.07;5.50;;;;;;;16.57;63.61;98588.56;10458595;28;20044;-71
2023/09/25 20:21:19;;;;;;;8.73;5.43;;;;;;;16.58;63.74;98587.94;10447080;28;20061;-71
2023/09/25 20:26:41;;;;;;;9.65;4.95;;;;;;;16.61;63.86;98586.00;10454398;28;20064;-71
2023/09/25 20:32:02;;;;;;;7.85;5.45;;;;;;;16.66;64.07;98579.22;10454172;28;20045;-71
2023/09/25 20:37:23;;;;;;;7.93;5.30;;;;;;;16.69;63.74;98580.81;10454937;28;20071;-70
2023/09/25 20:42:44;;;;;;;7.25;4.82;;;;;;;16.74;64.18;98585.34;10468744;28;20455;-71
2023/09/25 20:48:05;;;;;;;6.72;4.50;;;;;;;16.77;64.47;98570.00;10428116;28;20550;-71
2023/09/25 20:53:26;;;;;;;9.77;4.80;;;;;;;16.72;64.72;98573.97;10455033;28;20491;-72
2023/09/25 20:58:48;;;;;;;10.63;4.47;;;;;;;16.64;65.04;98570.66;10466967;28;20112;-72
2023/09/25 21:04:08;;;;;;;8.95;4.50;;;;;;;16.62;65.61;98581.09;10441353;28;20083;-72
2023/09/25 21:09:29;;;;;;;9.82;4.35;;;;;;;16.53;65.35;98579.88;10439870;28;20499;-71
2023/09/25 21:14:50;;;;;;;8.07;4.50;;;;;;;16.37;65.76;98576.13;10450354;28;20424;-72
2023/09/25 21:20:11;;;;;;;10.52;4.65;;;;;;;16.24;65.93;98569.78;10453470;28;20501;-71
2023/09/25 21:25:32;;;;;;;6.60;4.70;;;;;;;16.18;67.00;98579.97;10459579;28;20108;-71
2023/09/25 21:30:52;;;;;;;6.80;4.25;;;;;;;16.02;66.32;98580.50;10461664;28;20074;-71
2023/09/25 21:36:13;;;;;;;9.95;4.90;;;;;;;15.97;67.24;98580.84;10447812;28;20069;-71
2023/09/25 21:41:34;;;;;;;6.15;4.30;;;;;;;15.88;67.09;98581.72;10461517;28;20124;-71
2023/09/25 21:46:55;;;;;;;5.32;4.22;;;;;;;15.73;67.25;98588.59;10428002;28;20075;-71
2023/09/25 21:52:16;;;;;;;8.18;4.80;;;;;;;15.58;67.64;98592.56;10461305;28;20486;-71
2023/09/25 21:57:36;;;;;;;8.30;4.13;;;;;;;15.54;67.72;98583.88;10433157;28;20069;-71
2023/09/25 22:02:57;;;;;;;8.18;5.38;;;;;;;15.52;68.20;98592.19;10446703;28;20140;-71
2023/09/25 22:08:19;;;;;;;8.52;5.13;;;;;;;15.44;68.24;98586.06;10447002;28;20098;-71
2023/09/25 22:13:40;;;;;;;9.57;5.38;;;;;;;15.39;68.46;98592.78;10460545;28;20494;-71
2023/09/25 22:19:02;;;;;;;10.18;5.25;;;;;;;15.34;68.77;98577.72;10460018;28;20061;-71
2023/09/25 22:24:23;;;;;;;7.97;5.82;;;;;;;15.28;69.29;98576.63;10460081;28;20064;-71
2023/09/25 22:29:43;;;;;;;6.13;5.35;;;;;;;15.27;69.80;98583.59;10432215;28;20136;-71
2023/09/25 22:35:05;;;;;;;8.57;5.55;;;;;;;15.25;69.73;98586.25;10458737;28;20048;-71
2023/09/25 22:40:25;;;;;;;8.70;5.90;;;;;;;15.25;69.80;98575.00;10445605;28;20158;-72
2023/09/25 22:45:49;;;;;;;9.73;6.78;;;;;;;15.20;70.08;98573.31;10445793;28;20116;-71
2023/09/25 22:51:09;;;;;;;8.07;5.95;;;;;;;15.14;70.24;98565.22;10458909;28;20068;-71
2023/09/25 22:56:30;;;;;;;8.35;5.38;;;;;;;15.12;70.57;98579.16;10444745;28;20065;-71
2023/09/25 23:02:11;;;;;;;7.15;5.57;;;;;;;15.10;70.58;98576.22;10444558;28;20446;-71
2023/09/25 23:07:32;;;;;;;10.60;6.40;;;;;;;15.09;70.77;98569.84;10458234;28;20463;-71
2023/09/25 23:12:53;;;;;;;7.85;6.03;;;;;;;15.06;71.23;98576.69;10443837;28;20183;-71
2023/09/25 23:18:13;;;;;;;13.75;7.32;;;;;;;15.05;71.33;98580.84;10457884;28;20407;-71
2023/09/25 23:23:34;;;;;;;11.95;7.78;;;;;;;15.01;71.39;98583.41;10458534;28;20498;-71
2023/09/25 23:28:55;;;;;;;10.68;7.38;;;;;;;14.92;71.48;98578.59;10444090;28;20166;-71
2023/09/25 23:34:16;;;;;;;10.68;7.38;;;;;;;14.86;71.66;98570.53;10444263;28;20098;-71
2023/09/25 23:39:37;;;;;;;11.93;8.70;;;;;;;14.76;72.20;98563.50;10443771;28;20448;-71
2023/09/25 23:44:59;;;;;;;12.10;8.77;;;;;;;14.76;72.77;98572.66;10459660;28;20123;-73
2023/09/25 23:50:20;;;;;;;13.25;9.68;;;;;;;14.74;72.94;98566.19;10466691;28;20124;-73
2023/09/25 23:55:41;;;;;;;12.25;7.95;;;;;;;14.67;72.80;98562.28;10459267;28;20486;-71
